Terminal Aerodrome Forecast
Issued by NWS

Home | Current Version | Previous Version | Text Only | Print | Product List | Glossary On
Versions: 1 2 3 4 5 6 7 8 9 10 11 12 13 14
000
FTUS43 KDMX 210529
TAFOTM
TAF
KOTM 210529Z 2106/2206 VRB04KT P6SM VCTS OVC090CB
     FM211000 16005KT P6SM VCTS BKN190CB
     FM211600 18009KT P6SM BKN130
     FM220200 21008KT P6SM VCTS BKN090CB
     FM220500 25008KT P6SM OVC090=

USA.gov is the U.S. government's official web portal to all federal, state and local government web resources and services.